createdAt,value
2022-10-09T00:11:04.997Z,984.83
2022-10-09T00:23:05.456Z,984.85
2022-10-09T00:35:05.901Z,984.85
2022-10-09T00:47:06.353Z,985.01
2022-10-09T00:59:06.775Z,985.21
2022-10-09T01:11:07.422Z,985.32
2022-10-09T01:23:07.701Z,985.29
2022-10-09T01:35:08.140Z,985.25
2022-10-09T01:47:08.597Z,985.41
2022-10-09T01:59:13.491Z,985.34
2022-10-09T02:11:09.501Z,985.43
2022-10-09T02:23:09.960Z,985.60
2022-10-09T02:35:10.420Z,985.64
2022-10-09T02:47:10.899Z,985.70
2022-10-09T02:59:11.347Z,985.73
2022-10-09T03:11:11.758Z,985.70
2022-10-09T03:23:12.273Z,985.85
2022-10-09T03:35:12.729Z,985.95
2022-10-09T03:47:13.182Z,985.91
2022-10-09T03:59:13.612Z,985.94
2022-10-09T04:11:14.079Z,985.90
2022-10-09T04:23:14.539Z,986.15
2022-10-09T04:35:15.003Z,986.24
2022-10-09T04:47:15.427Z,986.39
2022-10-09T04:59:15.878Z,986.47
2022-10-09T05:11:16.629Z,986.68
2022-10-09T05:23:16.767Z,986.72
2022-10-09T05:35:17.191Z,986.77
2022-10-09T05:47:17.655Z,986.94
2022-10-09T05:59:18.173Z,987.10
2022-10-09T06:11:18.624Z,987.19
2022-10-09T06:23:19.016Z,987.38
2022-10-09T06:35:19.486Z,987.43
2022-10-09T06:47:19.982Z,987.47
2022-10-09T06:59:20.405Z,987.72
2022-10-09T07:11:20.864Z,987.77
2022-10-09T07:23:21.315Z,987.89
2022-10-09T07:35:21.790Z,987.89
2022-10-09T07:47:22.239Z,988.11
2022-10-09T07:59:22.685Z,988.02
2022-10-09T08:11:23.134Z,988.09
2022-10-09T08:23:23.551Z,988.18
2022-10-09T08:35:24.024Z,988.13
2022-10-09T08:47:24.519Z,988.07
2022-10-09T08:59:24.950Z,988.08
2022-10-09T09:11:25.396Z,988.13
2022-10-09T09:23:25.861Z,988.32
2022-10-09T09:35:26.298Z,987.99
2022-10-09T09:47:26.760Z,988.01
2022-10-09T09:59:27.238Z,987.99
2022-10-09T10:11:27.692Z,988.03
2022-10-09T10:23:28.136Z,988.10
2022-10-09T10:35:28.581Z,987.96
2022-10-09T10:47:29.038Z,987.95
2022-10-09T10:59:29.523Z,988.00
2022-10-09T11:11:29.946Z,987.87
2022-10-09T11:23:30.370Z,987.70
2022-10-09T11:35:30.860Z,987.50
2022-10-09T11:47:31.308Z,987.37
2022-10-09T11:59:31.766Z,987.34
2022-10-09T12:11:32.222Z,987.13
2022-10-09T12:23:33.122Z,986.98
2022-10-09T12:35:33.165Z,987.00
2022-10-09T12:47:33.603Z,986.88
2022-10-09T12:59:34.051Z,986.79
2022-10-09T13:11:34.488Z,986.66
2022-10-09T13:23:35.016Z,986.60
2022-10-09T13:35:35.385Z,986.58
2022-10-09T13:47:35.853Z,986.40
2022-10-09T13:59:36.333Z,986.33
2022-10-09T14:11:36.791Z,986.23
2022-10-09T14:23:37.234Z,986.22
2022-10-09T14:35:37.668Z,986.11
2022-10-09T14:47:38.158Z,985.97
2022-10-09T14:59:38.608Z,985.93
2022-10-09T15:11:39.060Z,986.01
2022-10-09T15:23:39.493Z,985.85
2022-10-09T15:35:39.981Z,986.03
2022-10-09T15:47:51.026Z,986.04
2022-10-09T15:59:40.886Z,985.98
2022-10-09T16:11:41.299Z,986.11
2022-10-09T16:23:41.813Z,986.20
2022-10-09T16:35:42.255Z,986.22
2022-10-09T16:47:44.173Z,986.40
2022-10-09T16:59:43.148Z,986.45
2022-10-09T17:11:43.625Z,986.50
2022-10-09T17:23:44.062Z,986.47
2022-10-09T17:35:44.507Z,986.48
2022-10-09T17:47:44.964Z,986.45
2022-10-09T17:59:45.412Z,986.48
2022-10-09T18:11:45.872Z,986.40
2022-10-09T18:23:46.279Z,986.38
2022-10-09T18:35:46.781Z,986.46
2022-10-09T18:47:47.242Z,986.45
2022-10-09T18:59:47.716Z,986.39
2022-10-09T19:11:48.125Z,986.39
2022-10-09T19:23:48.542Z,986.40
2022-10-09T19:35:49.064Z,986.37
2022-10-09T19:47:54.108Z,986.36
2022-10-09T19:59:49.926Z,986.31
2022-10-09T20:11:50.404Z,986.38
2022-10-09T20:23:50.809Z,986.37
2022-10-09T20:35:51.312Z,986.42
2022-10-09T20:47:51.764Z,986.48
2022-10-09T20:59:52.205Z,986.47
2022-10-09T21:11:52.672Z,986.36
2022-10-09T21:23:53.133Z,986.33
2022-10-09T21:35:53.560Z,986.34
2022-10-09T21:47:54.023Z,986.25
2022-10-09T21:59:54.507Z,986.29
2022-10-09T22:11:54.915Z,986.23
2022-10-09T22:23:55.372Z,986.19
2022-10-09T22:35:55.829Z,986.18
2022-10-09T22:47:56.295Z,986.18
2022-10-09T22:59:56.727Z,986.14
2022-10-09T23:11:57.179Z,986.15
2022-10-09T23:23:57.640Z,986.10
2022-10-09T23:35:58.121Z,986.03
2022-10-09T23:47:58.554Z,985.95
2022-10-09T23:59:59.001Z,985.86
